sensor_id;sensor_type;location;lat;lon;timestamp;P1;P2;P0
47711;PMS7003;57457;51.634;5.886;2022-11-04T00:08:22;4.21;7.09;3.28
47711;PMS7003;57457;51.634;5.886;2022-11-04T00:35:01;0.01;1.86;
47711;PMS7003;57457;51.634;5.886;2022-11-04T00:48:21;0.01;2.19;1.43
47711;PMS7003;57457;51.634;5.886;2022-11-04T01:01:41;0.84;4.04;1.97
47711;PMS7003;57457;51.634;5.886;2022-11-04T01:15:00;0.24;3.17;1.86
47711;PMS7003;57457;51.634;5.886;2022-11-04T01:28:20;7.93;8.62;3.82
47711;PMS7003;57457;51.634;5.886;2022-11-04T01:41:39;8.53;10.69;4.59
47711;PMS7003;57457;51.634;5.886;2022-11-04T01:54:59;10.09;10.47;4.26
47711;PMS7003;57457;51.634;5.886;2022-11-04T02:08:19;10.33;12.22;4.59
47711;PMS7003;57457;51.634;5.886;2022-11-04T02:21:38;9.73;11.24;4.15
47711;PMS7003;57457;51.634;5.886;2022-11-04T02:34:58;4.33;7.2;3.5
47711;PMS7003;57457;51.634;5.886;2022-11-04T02:48:17;4.81;6.66;2.95
47711;PMS7003;57457;51.634;5.886;2022-11-04T03:01:37;4.45;6.55;2.73
47711;PMS7003;57457;51.634;5.886;2022-11-04T03:14:57;4.69;6.22;2.95
47711;PMS7003;57457;51.634;5.886;2022-11-04T03:28:16;3.97;6.33;2.62
47711;PMS7003;57457;51.634;5.886;2022-11-04T03:41:36;5.41;5.13;2.19
47711;PMS7003;57457;51.634;5.886;2022-11-04T03:54:56;2.04;4.59;2.41
47711;PMS7003;57457;51.634;5.886;2022-11-04T04:08:15;0.96;3.71;1.97
47711;PMS7003;57457;51.634;5.886;2022-11-04T04:21:35;1.08;4.04;1.97
47711;PMS7003;57457;51.634;5.886;2022-11-04T04:34:54;0.72;3.28;1.97
47711;PMS7003;57457;51.634;5.886;2022-11-04T04:48:14;0.72;3.93;1.97
47711;PMS7003;57457;51.634;5.886;2022-11-04T05:01:34;2.52;3.61;1.75
47711;PMS7003;57457;51.634;5.886;2022-11-04T05:14:53;1.08;4.15;2.3
47711;PMS7003;57457;51.634;5.886;2022-11-04T05:28:13;1.32;4.26;2.19
47711;PMS7003;57457;51.634;5.886;2022-11-04T05:41:33;1.68;4.7;2.52
47711;PMS7003;57457;51.634;5.886;2022-11-04T05:54:52;3.12;4.7;2.3
47711;PMS7003;57457;51.634;5.886;2022-11-04T06:08:12;2.04;5.02;2.73
47711;PMS7003;57457;51.634;5.886;2022-11-04T06:21:31;3.0;5.46;2.73
47711;PMS7003;57457;51.634;5.886;2022-11-04T06:34:51;2.52;5.57;2.41
47711;PMS7003;57457;51.634;5.886;2022-11-04T06:48:11;3.6;5.02;2.73
47711;PMS7003;57457;51.634;5.886;2022-11-04T07:01:30;3.6;4.59;2.41
47711;PMS7003;57457;51.634;5.886;2022-11-04T07:14:50;3.24;6.11;2.84
47711;PMS7003;57457;51.634;5.886;2022-11-04T07:28:09;3.73;5.79;2.62
47711;PMS7003;57457;51.634;5.886;2022-11-04T07:41:29;2.76;5.79;2.73
47711;PMS7003;57457;51.634;5.886;2022-11-04T07:54:48;6.13;6.55;3.17
47711;PMS7003;57457;51.634;5.886;2022-11-04T08:08:08;2.64;5.46;2.73
47711;PMS7003;57457;51.634;5.886;2022-11-04T08:21:28;3.73;6.33;2.95
47711;PMS7003;57457;51.634;5.886;2022-11-04T08:34:47;4.81;6.88;3.39
47711;PMS7003;57457;51.634;5.886;2022-11-04T08:48:07;5.41;7.75;3.61
47711;PMS7003;57457;51.634;5.886;2022-11-04T09:01:26;7.21;7.53;3.82
47711;PMS7003;57457;51.634;5.886;2022-11-04T09:14:46;6.37;8.29;4.48
47711;PMS7003;57457;51.634;5.886;2022-11-04T09:41:26;6.37;7.53;3.61
47711;PMS7003;57457;51.634;5.886;2022-11-04T09:54:45;3.97;6.44;3.39
47711;PMS7003;57457;51.634;5.886;2022-11-04T10:08:05;6.13;6.99;3.06
47711;PMS7003;57457;51.634;5.886;2022-11-04T10:21:24;6.25;6.66;3.39
47711;PMS7003;57457;51.634;5.886;2022-11-04T10:34:44;6.25;6.77;3.39
47711;PMS7003;57457;51.634;5.886;2022-11-04T10:48:03;4.93;5.02;2.84
47711;PMS7003;57457;51.634;5.886;2022-11-04T11:01:23;4.69;7.09;3.39
47711;PMS7003;57457;51.634;5.886;2022-11-04T11:14:43;6.37;6.99;3.28
47711;PMS7003;57457;51.634;5.886;2022-11-04T11:28:02;4.93;7.64;3.93
47711;PMS7003;57457;51.634;5.886;2022-11-04T11:41:22;6.85;7.53;4.15
47711;PMS7003;57457;51.634;5.886;2022-11-04T11:54:42;6.61;9.27;5.13
47711;PMS7003;57457;51.634;5.886;2022-11-04T12:08:01;7.09;9.27;5.02
47711;PMS7003;57457;51.634;5.886;2022-11-04T12:21:21;8.65;10.47;5.79
47711;PMS7003;57457;51.634;5.886;2022-11-04T12:34:40;9.13;10.8;5.79
47711;PMS7003;57457;51.634;5.886;2022-11-04T12:48:00;9.85;10.04;5.13
47711;PMS7003;57457;51.634;5.886;2022-11-04T13:01:20;8.17;10.36;5.35
47711;PMS7003;57457;51.634;5.886;2022-11-04T13:14:39;13.57;12.54;5.79
47711;PMS7003;57457;51.634;5.886;2022-11-04T13:27:59;13.45;13.42;6.44
47711;PMS7003;57457;51.634;5.886;2022-11-04T13:41:19;11.65;11.67;5.57
47711;PMS7003;57457;51.634;5.886;2022-11-04T13:54:38;15.25;14.29;6.77
47711;PMS7003;57457;51.634;5.886;2022-11-04T14:07:58;13.45;14.62;6.44
47711;PMS7003;57457;51.634;5.886;2022-11-04T14:21:17;16.69;17.45;7.97
47711;PMS7003;57457;51.634;5.886;2022-11-04T14:34:37;15.13;15.92;6.66
47711;PMS7003;57457;51.634;5.886;2022-11-04T14:47:57;16.21;16.03;7.09
47711;PMS7003;57457;51.634;5.886;2022-11-04T15:01:16;17.29;16.58;6.88
47711;PMS7003;57457;51.634;5.886;2022-11-04T15:14:36;15.61;16.8;7.2
47711;PMS7003;57457;51.634;5.886;2022-11-04T15:27:56;18.13;17.56;6.66
47711;PMS7003;57457;51.634;5.886;2022-11-04T15:54:35;14.53;15.71;6.22
47711;PMS7003;57457;51.634;5.886;2022-11-04T16:07:54;15.13;14.4;5.9
47711;PMS7003;57457;51.634;5.886;2022-11-04T16:21:14;11.77;12.11;5.35
47711;PMS7003;57457;51.634;5.886;2022-11-04T16:34:34;6.37;7.2;3.71
47711;PMS7003;57457;51.634;5.886;2022-11-04T16:47:53;3.85;5.24;2.62
47711;PMS7003;57457;51.634;5.886;2022-11-04T17:01:13;3.6;4.48;2.08
47711;PMS7003;57457;51.634;5.886;2022-11-04T17:14:32;0.01;3.06;1.64
47711;PMS7003;57457;51.634;5.886;2022-11-04T17:27:52;0.01;2.62;1.64
47711;PMS7003;57457;51.634;5.886;2022-11-04T17:41:12;0.01;3.06;1.64
47711;PMS7003;57457;51.634;5.886;2022-11-04T17:54:31;2.64;3.71;2.08
47711;PMS7003;57457;51.634;5.886;2022-11-04T18:07:51;0.72;3.06;1.86
47711;PMS7003;57457;51.634;5.886;2022-11-04T18:21:10;1.92;4.37;2.19
47711;PMS7003;57457;51.634;5.886;2022-11-04T18:34:30;0.96;4.15;2.19
47711;PMS7003;57457;51.634;5.886;2022-11-04T18:47:50;1.92;4.8;2.62
47711;PMS7003;57457;51.634;5.886;2022-11-04T19:01:09;2.52;5.57;2.95
47711;PMS7003;57457;51.634;5.886;2022-11-04T19:14:29;3.97;5.24;2.62
47711;PMS7003;57457;51.634;5.886;2022-11-04T19:27:49;3.12;5.46;2.62
47711;PMS7003;57457;51.634;5.886;2022-11-04T19:41:08;2.64;4.37;2.41
47711;PMS7003;57457;51.634;5.886;2022-11-04T20:07:47;3.0;6.0;2.95
47711;PMS7003;57457;51.634;5.886;2022-11-04T20:21:07;3.36;6.22;3.28
47711;PMS7003;57457;51.634;5.886;2022-11-04T20:34:27;3.6;6.55;3.28
47711;PMS7003;57457;51.634;5.886;2022-11-04T20:47:46;5.05;7.42;3.71
47711;PMS7003;57457;51.634;5.886;2022-11-04T21:14:25;7.57;8.51;4.37
47711;PMS7003;57457;51.634;5.886;2022-11-04T21:27:45;6.37;8.4;4.15
47711;PMS7003;57457;51.634;5.886;2022-11-04T21:41:05;6.13;8.73;4.15
47711;PMS7003;57457;51.634;5.886;2022-11-04T21:54:24;4.81;7.64;4.26
47711;PMS7003;57457;51.634;5.886;2022-11-04T22:07:44;3.97;6.44;4.04
47711;PMS7003;57457;51.634;5.886;2022-11-04T22:21:03;6.61;8.84;5.02
47711;PMS7003;57457;51.634;5.886;2022-11-04T22:34:23;10.21;8.95;4.8
47711;PMS7003;57457;51.634;5.886;2022-11-04T22:47:43;7.81;9.71;5.24
47711;PMS7003;57457;51.634;5.886;2022-11-04T23:01:02;11.89;10.36;5.68
47711;PMS7003;57457;51.634;5.886;2022-11-04T23:14:22;10.09;10.47;5.46
47711;PMS7003;57457;51.634;5.886;2022-11-04T23:27:41;9.97;10.47;5.46
47711;PMS7003;57457;51.634;5.886;2022-11-04T23:41:01;7.33;9.71;4.8
47711;PMS7003;57457;51.634;5.886;2022-11-04T23:54:21;8.89;10.69;5.35
